createdAt,value
2022-08-08T00:00:55.311Z,50.97
2022-08-08T00:03:31.483Z,51.27
2022-08-08T00:06:03.731Z,51.28
2022-08-08T00:08:36.387Z,51.43
2022-08-08T00:11:13.277Z,51.71
2022-08-08T00:14:16.656Z,51.87
2022-08-08T00:17:06.569Z,51.94
2022-08-08T00:19:58.489Z,52.01
2022-08-08T00:22:31.695Z,52.18
2022-08-08T00:25:02.644Z,52.52
2022-08-08T00:27:32.951Z,52.47
2022-08-08T00:30:07.253Z,52.71
2022-08-08T00:32:49.984Z,52.84
2022-08-08T00:35:34.168Z,52.99
2022-08-08T00:38:32.251Z,53.03
2022-08-08T00:41:44.734Z,53.24
2022-08-08T00:44:27.141Z,53.19
2022-08-08T00:47:19.673Z,53.13
2022-08-08T00:50:22.673Z,53.37
2022-08-08T00:52:58.149Z,53.35
2022-08-08T00:55:55.601Z,53.22
2022-08-08T00:58:54.823Z,53.09
2022-08-08T01:01:47.307Z,52.92
2022-08-08T01:04:51.335Z,52.72
2022-08-08T01:07:55.467Z,52.78
2022-08-08T01:10:33.628Z,52.62
2022-08-08T01:13:44.399Z,52.58
2022-08-08T01:16:52.347Z,52.50
2022-08-08T01:20:01.283Z,52.61
2022-08-08T01:22:39.779Z,52.48
2022-08-08T01:25:26.353Z,52.31
2022-08-08T01:28:11.067Z,52.09
2022-08-08T01:30:58.576Z,52.04
2022-08-08T01:33:54.127Z,51.93
2022-08-08T01:36:43.700Z,51.74
2022-08-08T01:39:41.820Z,51.61
2022-08-08T01:42:36.523Z,51.56
2022-08-08T01:45:29.300Z,51.37
2022-08-08T01:48:16.469Z,51.35
2022-08-08T01:51:31.368Z,51.37
2022-08-08T01:55:26.797Z,51.43
2022-08-08T01:58:04.592Z,51.28
2022-08-08T02:00:48.544Z,51.22
2022-08-08T02:03:55.311Z,51.25
2022-08-08T02:06:43.472Z,51.44
2022-08-08T02:10:02.141Z,51.46
2022-08-08T02:12:33.848Z,51.46
2022-08-08T02:15:18.613Z,51.65
2022-08-08T02:18:10.323Z,51.62
2022-08-08T02:21:00.594Z,51.70
2022-08-08T02:23:35.231Z,51.74
2022-08-08T02:26:15.728Z,52.04
2022-08-08T02:28:48.350Z,52.05
2022-08-08T02:31:54.039Z,52.09
2022-08-08T02:35:08.040Z,52.47
2022-08-08T02:38:05.640Z,52.82
2022-08-08T02:40:49.984Z,53.03
2022-08-08T02:44:42.436Z,53.28
2022-08-08T02:46:25.969Z,53.33
2022-08-08T02:48:57.447Z,53.66
2022-08-08T02:51:56.508Z,53.72
2022-08-08T02:54:43.764Z,53.79
2022-08-08T02:57:44.312Z,53.89
2022-08-08T03:00:29.702Z,54.05
2022-08-08T03:05:01.009Z,53.96
2022-08-08T03:06:35.022Z,53.92
2022-08-08T03:09:28.787Z,54.08
2022-08-08T03:12:14.262Z,54.07
2022-08-08T03:15:59.702Z,54.21
2022-08-08T03:18:13.539Z,54.55
2022-08-08T03:21:14.430Z,54.71
2022-08-08T03:23:59.522Z,54.71
2022-08-08T03:26:42.889Z,54.87
2022-08-08T03:29:38.265Z,54.94
2022-08-08T03:32:35.580Z,55.08
2022-08-08T03:35:16.965Z,55.07
2022-08-08T03:38:53.206Z,55.03
2022-08-08T03:40:35.575Z,55.06
2022-08-08T03:43:17.947Z,54.99
2022-08-08T03:46:05.169Z,55.09
2022-08-08T03:49:38.233Z,55.22
2022-08-08T03:51:40.471Z,55.12
2022-08-08T03:54:51.814Z,54.94
2022-08-08T03:58:09.471Z,55.06
2022-08-08T04:00:11.140Z,55.05
2022-08-08T04:03:11.094Z,54.79
2022-08-08T04:06:01.672Z,54.86
2022-08-08T04:08:33.057Z,54.93
2022-08-08T04:11:11.286Z,54.75
2022-08-08T04:14:04.214Z,54.54
2022-08-08T04:16:41.085Z,54.05
2022-08-08T04:19:23.301Z,53.24
2022-08-08T04:21:54.746Z,51.75
2022-08-08T04:24:28.674Z,50.77
2022-08-08T04:26:59.085Z,49.79
2022-08-08T04:29:37.175Z,49.05
2022-08-08T04:32:10.886Z,48.27
2022-08-08T04:34:55.925Z,47.48
2022-08-08T04:37:32.187Z,47.06
2022-08-08T04:40:10.724Z,46.68
2022-08-08T04:42:57.178Z,46.28
2022-08-08T04:45:30.859Z,45.86
2022-08-08T04:48:00.948Z,45.68
2022-08-08T04:50:38.754Z,45.04
2022-08-08T04:53:52.560Z,44.65
2022-08-08T04:55:58.846Z,44.25
2022-08-08T04:58:29.934Z,44.15
2022-08-08T05:00:56.691Z,44.00
2022-08-08T05:04:08.122Z,43.67
2022-08-08T05:06:12.765Z,43.26
2022-08-08T05:08:51.646Z,42.96
2022-08-08T05:11:23.202Z,42.64
2022-08-08T05:14:00.762Z,42.19
2022-08-08T05:16:53.502Z,42.01
2022-08-08T05:20:08.836Z,41.78
2022-08-08T05:22:12.422Z,41.54
2022-08-08T05:24:48.145Z,41.43
2022-08-08T05:27:16.955Z,41.36
2022-08-08T05:29:44.482Z,41.14
2022-08-08T05:32:12.828Z,40.94
2022-08-08T05:34:40.852Z,40.99
2022-08-08T05:37:17.087Z,41.16
2022-08-08T05:39:49.600Z,41.18
2022-08-08T05:42:16.482Z,41.24
2022-08-08T05:44:49.069Z,41.28
2022-08-08T05:47:20.955Z,41.10
2022-08-08T05:49:54.141Z,40.94
2022-08-08T05:52:31.727Z,40.82
2022-08-08T05:55:04.421Z,40.73
2022-08-08T05:58:04.465Z,40.65
2022-08-08T06:00:30.350Z,40.97
2022-08-08T06:03:24.607Z,41.00
2022-08-08T06:05:59.531Z,41.26
2022-08-08T06:08:34.886Z,41.30
2022-08-08T06:11:10.497Z,41.18
2022-08-08T06:13:47.511Z,40.96
2022-08-08T06:16:24.981Z,41.10
2022-08-08T06:19:16.646Z,41.96
2022-08-08T06:21:57.247Z,42.51
2022-08-08T06:24:36.252Z,42.72
2022-08-08T06:27:05.726Z,43.46
2022-08-08T06:29:56.619Z,43.92
2022-08-08T06:32:36.690Z,44.84
2022-08-08T06:36:04.621Z,45.24
2022-08-08T06:38:16.032Z,45.47
2022-08-08T06:40:53.726Z,45.33
2022-08-08T06:43:28.310Z,45.49
2022-08-08T06:45:59.352Z,45.62
2022-08-08T06:48:26.741Z,45.94
2022-08-08T06:50:58.864Z,45.68
2022-08-08T06:53:39.342Z,45.67
2022-08-08T06:56:08.873Z,45.68
2022-08-08T06:58:41.202Z,45.76
2022-08-08T07:02:16.649Z,45.66
2022-08-08T07:04:38.053Z,45.62
2022-08-08T07:06:58.946Z,45.36
2022-08-08T07:09:45.778Z,45.42
2022-08-08T07:12:33.790Z,45.14
2022-08-08T07:15:06.778Z,45.02
2022-08-08T07:18:02.029Z,45.14
2022-08-08T07:20:45.787Z,44.89
2022-08-08T07:23:27.469Z,44.64
2022-08-08T07:26:17.960Z,44.49
2022-08-08T07:28:58.191Z,44.35
2022-08-08T07:31:35.510Z,44.51
2022-08-08T07:34:08.691Z,44.24
2022-08-08T07:36:48.144Z,44.01
2022-08-08T07:39:29.069Z,44.08
2022-08-08T07:42:05.149Z,43.95
2022-08-08T07:44:40.075Z,43.68
2022-08-08T07:47:07.686Z,43.47
2022-08-08T07:49:36.085Z,43.34
2022-08-08T07:52:09.075Z,43.40
2022-08-08T07:54:59.977Z,43.26
2022-08-08T07:57:36.968Z,43.19
2022-08-08T08:00:16.649Z,42.57
2022-08-08T08:03:07.124Z,42.88
2022-08-08T08:05:40.185Z,42.55
2022-08-08T08:08:20.420Z,42.64
2022-08-08T08:10:50.760Z,42.41
2022-08-08T08:14:06.141Z,42.29
2022-08-08T08:16:26.141Z,41.87
2022-08-08T08:19:00.014Z,41.61
2022-08-08T08:22:00.696Z,41.13
2022-08-08T08:24:46.580Z,40.77
2022-08-08T08:27:24.887Z,40.97
2022-08-08T08:30:17.363Z,40.88
2022-08-08T08:32:51.374Z,41.17
2022-08-08T08:35:21.459Z,41.01
2022-08-08T08:38:16.106Z,40.66
2022-08-08T08:40:54.260Z,40.53
2022-08-08T08:43:30.718Z,40.59
2022-08-08T08:46:17.514Z,40.62
2022-08-08T08:48:49.877Z,40.68
2022-08-08T08:51:24.212Z,40.70
2022-08-08T08:53:56.486Z,40.69
2022-08-08T08:56:38.224Z,40.38
2022-08-08T08:59:58.635Z,40.52
2022-08-08T09:02:21.338Z,40.59
2022-08-08T09:04:53.760Z,40.37
2022-08-08T09:07:39.290Z,39.82
2022-08-08T09:10:18.689Z,39.56
2022-08-08T09:12:54.312Z,39.30
2022-08-08T09:15:41.546Z,39.22
2022-08-08T09:18:08.082Z,39.43
2022-08-08T09:22:01.965Z,39.58
2022-08-08T09:23:37.939Z,39.71
2022-08-08T09:26:08.605Z,39.44
2022-08-08T09:28:39.993Z,39.23
2022-08-08T09:31:56.577Z,38.89
2022-08-08T09:34:34.257Z,38.78
2022-08-08T09:37:46.262Z,38.98
2022-08-08T09:39:58.649Z,38.93
2022-08-08T09:42:32.274Z,38.63
2022-08-08T09:45:15.835Z,38.49
2022-08-08T09:48:05.120Z,38.27
2022-08-08T09:50:44.144Z,38.26
2022-08-08T09:53:24.895Z,38.09
2022-08-08T09:56:11.538Z,38.09
2022-08-08T09:58:59.982Z,37.88
2022-08-08T10:02:02.675Z,37.51
2022-08-08T10:04:38.357Z,36.69
2022-08-08T10:07:35.976Z,36.64
2022-08-08T10:10:13.704Z,36.68
2022-08-08T10:12:57.424Z,36.24
2022-08-08T10:16:00.254Z,35.92
2022-08-08T10:18:36.932Z,36.14
2022-08-08T10:21:24.905Z,36.03
2022-08-08T10:23:59.719Z,36.11
2022-08-08T10:26:58.689Z,35.99
2022-08-08T10:30:04.913Z,35.88
2022-08-08T10:32:37.505Z,35.37
2022-08-08T10:36:07.313Z,35.27
2022-08-08T10:38:07.853Z,35.48
2022-08-08T10:40:40.901Z,35.30
2022-08-08T10:43:14.338Z,34.85
2022-08-08T10:45:56.673Z,34.89
2022-08-08T10:48:32.512Z,34.68
2022-08-08T10:51:10.901Z,34.94
2022-08-08T10:53:57.348Z,34.56
2022-08-08T10:56:27.584Z,34.59
2022-08-08T10:59:14.081Z,34.46
2022-08-08T11:01:54.357Z,34.33
2022-08-08T11:04:38.727Z,33.89
2022-08-08T11:07:06.868Z,34.03
2022-08-08T11:09:34.432Z,34.02
2022-08-08T11:12:12.445Z,33.65
2022-08-08T11:14:55.174Z,33.15
2022-08-08T11:17:58.525Z,33.32
2022-08-08T11:20:17.740Z,33.20
2022-08-08T11:23:10.065Z,33.00
2022-08-08T11:25:51.678Z,32.63
2022-08-08T11:28:23.513Z,32.74
2022-08-08T11:30:57.243Z,32.38
2022-08-08T11:33:52.446Z,32.14
2022-08-08T11:36:19.829Z,31.98
2022-08-08T11:38:54.641Z,31.91
2022-08-08T11:41:32.508Z,32.24
2022-08-08T11:44:01.281Z,32.68
2022-08-08T11:46:35.399Z,32.36
2022-08-08T11:49:08.699Z,31.93
2022-08-08T11:51:39.911Z,31.99
2022-08-08T11:57:42.017Z,31.67
2022-08-08T12:00:17.342Z,31.52
2022-08-08T12:02:57.365Z,31.54
2022-08-08T12:05:59.293Z,31.41
2022-08-08T12:08:44.613Z,30.94
2022-08-08T12:11:18.522Z,31.34
2022-08-08T12:14:30.376Z,31.34
2022-08-08T12:17:01.598Z,31.45
2022-08-08T12:19:51.717Z,31.25
2022-08-08T12:22:31.312Z,31.39
2022-08-08T12:25:30.134Z,31.19
2022-08-08T12:28:15.809Z,31.43
2022-08-08T12:30:49.998Z,31.23
2022-08-08T12:33:37.133Z,30.90
2022-08-08T12:36:46.390Z,30.86
2022-08-08T12:40:00.626Z,30.99
2022-08-08T12:42:46.498Z,30.84
2022-08-08T12:45:59.325Z,30.57
2022-08-08T12:48:37.847Z,30.44
2022-08-08T12:51:21.708Z,30.59
2022-08-08T12:53:58.709Z,31.24
2022-08-08T12:56:33.606Z,31.38
2022-08-08T12:59:00.351Z,31.03
2022-08-08T13:01:36.355Z,31.07
2022-08-08T13:04:18.663Z,30.95
2022-08-08T13:06:53.035Z,31.00
2022-08-08T13:09:43.336Z,30.73
2022-08-08T13:12:32.282Z,30.69
2022-08-08T13:15:04.007Z,30.71
2022-08-08T13:18:07.874Z,30.43
2022-08-08T13:20:29.607Z,30.57
2022-08-08T13:23:36.174Z,30.65
2022-08-08T13:26:01.227Z,31.09
2022-08-08T13:28:34.378Z,30.60
2022-08-08T13:31:04.468Z,30.00
2022-08-08T13:33:42.487Z,30.17
2022-08-08T13:36:18.119Z,29.89
2022-08-08T13:38:53.641Z,29.97
2022-08-08T13:41:21.875Z,29.90
2022-08-08T13:43:49.802Z,29.70
2022-08-08T13:46:26.476Z,29.91
2022-08-08T13:49:11.734Z,29.77
2022-08-08T13:51:51.034Z,29.32
2022-08-08T13:54:22.022Z,29.31
2022-08-08T13:57:12.335Z,29.33
2022-08-08T13:59:48.126Z,29.28
2022-08-08T14:02:20.843Z,29.44
2022-08-08T14:05:19.961Z,29.75
2022-08-08T14:07:51.819Z,29.54
2022-08-08T14:10:33.424Z,29.44
2022-08-08T14:13:21.123Z,30.06
2022-08-08T14:16:02.897Z,30.77
2022-08-08T14:18:36.089Z,33.19
2022-08-08T14:21:20.667Z,34.65
2022-08-08T14:24:07.768Z,35.64
2022-08-08T14:26:41.112Z,36.64
2022-08-08T14:29:28.300Z,37.42
2022-08-08T14:32:11.523Z,38.18
2022-08-08T14:34:42.744Z,38.66
2022-08-08T14:37:10.131Z,39.00
2022-08-08T14:39:47.896Z,39.17
2022-08-08T14:42:16.689Z,39.59
2022-08-08T14:44:52.543Z,40.04
2022-08-08T14:47:21.378Z,40.25
2022-08-08T14:50:06.461Z,40.15
2022-08-08T14:52:57.415Z,40.54
2022-08-08T14:55:41.611Z,40.63
2022-08-08T14:58:11.622Z,40.86
2022-08-08T15:00:44.594Z,41.19
2022-08-08T15:03:15.861Z,41.33
2022-08-08T15:05:54.296Z,41.83
2022-08-08T15:08:35.226Z,42.22
2022-08-08T15:11:10.663Z,42.14
2022-08-08T15:14:00.716Z,42.09
2022-08-08T15:16:34.470Z,41.98
2022-08-08T15:19:02.212Z,42.00
2022-08-08T15:21:32.702Z,41.48
2022-08-08T15:23:59.663Z,41.08
2022-08-08T15:26:28.883Z,40.79
2022-08-08T15:28:56.661Z,40.56
2022-08-08T15:31:55.858Z,40.43
2022-08-08T15:34:18.671Z,40.21
2022-08-08T15:36:57.401Z,39.51
2022-08-08T15:39:24.436Z,38.93
2022-08-08T15:41:53.680Z,38.85
2022-08-08T15:44:20.709Z,38.80
2022-08-08T15:46:50.886Z,38.79
2022-08-08T15:49:20.846Z,38.90
2022-08-08T15:51:48.201Z,38.93
2022-08-08T15:54:18.903Z,38.78
2022-08-08T15:57:07.333Z,38.74
2022-08-08T16:00:18.282Z,38.41
2022-08-08T16:02:21.636Z,38.19
2022-08-08T16:04:53.449Z,38.29
2022-08-08T16:07:21.176Z,38.41
2022-08-08T16:13:09.456Z,38.38
2022-08-08T16:13:26.707Z,38.27
2022-08-08T16:15:20.551Z,37.96
2022-08-08T16:18:06.625Z,38.12
2022-08-08T16:20:34.074Z,37.96
2022-08-08T16:23:04.045Z,37.97
2022-08-08T16:25:45.623Z,38.09
2022-08-08T16:28:34.025Z,38.26
2022-08-08T16:31:07.439Z,38.32
2022-08-08T16:33:38.451Z,38.28
2022-08-08T16:36:11.659Z,38.40
2022-08-08T16:38:47.133Z,38.55
2022-08-08T16:41:20.198Z,38.70
2022-08-08T16:43:51.426Z,38.70
2022-08-08T16:46:36.445Z,38.61
2022-08-08T16:49:07.898Z,39.07
2022-08-08T16:55:04.210Z,39.32
2022-08-08T16:55:04.692Z,39.56
2022-08-08T16:57:27.743Z,39.91
2022-08-08T17:00:08.527Z,40.24
2022-08-08T17:02:39.541Z,40.18
2022-08-08T17:05:13.949Z,40.43
2022-08-08T17:07:42.023Z,40.81
2022-08-08T17:10:09.764Z,40.91
2022-08-08T17:12:37.205Z,40.90
2022-08-08T17:15:17.583Z,40.92
2022-08-08T17:18:03.295Z,41.18
2022-08-08T17:20:31.951Z,41.28
2022-08-08T17:23:16.805Z,41.81
2022-08-08T17:25:53.726Z,42.40
2022-08-08T17:28:35.369Z,42.73
2022-08-08T17:31:39.507Z,42.72
2022-08-08T17:34:48.937Z,42.81
2022-08-08T17:37:09.200Z,43.48
2022-08-08T17:40:03.167Z,43.70
2022-08-08T17:42:22.387Z,43.98
2022-08-08T17:44:52.779Z,44.13
2022-08-08T17:47:23.765Z,44.51
2022-08-08T17:49:52.490Z,45.20
2022-08-08T17:52:29.995Z,45.18
2022-08-08T17:55:05.065Z,45.43
2022-08-08T17:57:53.589Z,46.08
2022-08-08T18:00:30.784Z,46.28
2022-08-08T18:03:24.797Z,46.39
2022-08-08T18:05:54.397Z,46.77
2022-08-08T18:08:41.173Z,46.84
2022-08-08T18:11:24.567Z,47.08
2022-08-08T18:14:04.397Z,47.85
2022-08-08T18:16:57.897Z,48.10
2022-08-08T18:19:30.435Z,48.72
2022-08-08T18:22:05.253Z,48.63
2022-08-08T18:24:34.167Z,48.64
2022-08-08T18:27:06.126Z,48.71
2022-08-08T18:29:44.435Z,49.01
2022-08-08T18:32:11.036Z,49.25
2022-08-08T18:34:42.714Z,49.49
2022-08-08T18:37:09.808Z,49.38
2022-08-08T18:39:44.788Z,49.88
2022-08-08T18:42:16.355Z,49.80
2022-08-08T18:44:55.468Z,50.04
2022-08-08T18:47:26.600Z,50.41
2022-08-08T18:49:58.900Z,50.66
2022-08-08T18:52:34.805Z,50.55
2022-08-08T18:55:16.751Z,50.76
2022-08-08T18:57:49.762Z,50.70
2022-08-08T19:00:19.692Z,50.97
2022-08-08T19:02:55.996Z,50.53
2022-08-08T19:05:32.005Z,50.84
2022-08-08T19:08:25.038Z,51.34
2022-08-08T19:11:01.920Z,51.27
2022-08-08T19:13:52.629Z,51.78
2022-08-08T19:16:18.756Z,52.11
2022-08-08T19:19:00.386Z,52.11
2022-08-08T19:21:33.259Z,52.56
2022-08-08T19:24:39.139Z,52.61
2022-08-08T19:27:01.974Z,52.59
2022-08-08T19:29:30.534Z,52.81
2022-08-08T19:31:57.439Z,52.55
2022-08-08T19:34:36.787Z,52.50
2022-08-08T19:37:05.930Z,52.77
2022-08-08T19:39:35.566Z,52.71
2022-08-08T19:42:04.727Z,52.89
2022-08-08T19:44:42.802Z,52.60
2022-08-08T19:47:13.417Z,52.71
2022-08-08T19:49:43.611Z,52.80
2022-08-08T19:52:35.059Z,52.91
2022-08-08T19:55:12.070Z,53.29
2022-08-08T19:57:40.807Z,53.31
2022-08-08T20:00:30.672Z,53.46
2022-08-08T20:03:01.509Z,53.31
2022-08-08T20:06:15.357Z,53.23
2022-08-08T20:08:32.026Z,53.07
2022-08-08T20:11:00.320Z,52.90
2022-08-08T20:14:33.004Z,52.77
2022-08-08T20:16:23.455Z,52.91
2022-08-08T20:18:56.447Z,53.13
2022-08-08T20:21:25.255Z,53.26
2022-08-08T20:23:54.265Z,53.24
2022-08-08T20:26:27.495Z,53.54
2022-08-08T20:28:57.386Z,53.65
2022-08-08T20:31:23.969Z,53.84
2022-08-08T20:34:27.900Z,53.91
2022-08-08T20:36:41.358Z,53.95
2022-08-08T20:39:10.134Z,53.90
2022-08-08T20:41:37.708Z,53.90
2022-08-08T20:44:08.057Z,53.85
2022-08-08T20:46:35.652Z,53.80
2022-08-08T20:49:06.978Z,53.91
2022-08-08T20:51:37.191Z,53.94
2022-08-08T20:54:13.951Z,53.86
2022-08-08T20:57:04.783Z,54.10
2022-08-08T20:59:41.053Z,53.97
2022-08-08T21:02:12.654Z,54.11
2022-08-08T21:04:40.062Z,53.95
2022-08-08T21:07:15.796Z,53.91
2022-08-08T21:10:02.099Z,53.83
2022-08-08T21:12:32.429Z,53.58
2022-08-08T21:15:09.288Z,53.36
2022-08-08T21:17:36.787Z,53.33
2022-08-08T21:20:04.065Z,53.30
2022-08-08T21:22:30.698Z,53.31
2022-08-08T21:24:58.351Z,53.20
2022-08-08T21:27:39.060Z,52.94
2022-08-08T21:30:18.775Z,52.99
2022-08-08T21:32:52.272Z,52.97
2022-08-08T21:36:14.381Z,52.93
2022-08-08T21:38:11.770Z,52.90
2022-08-08T21:40:55.561Z,53.18
2022-08-08T21:43:33.414Z,53.39
2022-08-08T21:48:04.551Z,53.40
2022-08-08T21:49:03.381Z,53.68
2022-08-08T21:54:18.674Z,53.88
2022-08-08T21:54:48.482Z,54.14
2022-08-08T21:57:06.550Z,54.39
2022-08-08T22:00:03.197Z,54.55
2022-08-08T22:02:23.232Z,54.38
2022-08-08T22:04:51.738Z,54.31
2022-08-08T22:07:18.324Z,54.32
2022-08-08T22:09:45.634Z,54.63
2022-08-08T22:12:16.693Z,54.64
2022-08-08T22:14:44.775Z,54.72
2022-08-08T22:17:17.601Z,54.95
2022-08-08T22:20:12.489Z,55.28
2022-08-08T22:22:34.513Z,55.56
2022-08-08T22:25:12.497Z,55.48
2022-08-08T22:28:02.693Z,55.94
2022-08-08T22:30:40.249Z,55.98
2022-08-08T22:34:11.271Z,56.33
2022-08-08T22:36:04.270Z,56.60
2022-08-08T22:38:39.489Z,56.95
2022-08-08T22:41:21.734Z,57.22
2022-08-08T22:44:02.102Z,57.27
2022-08-08T22:46:39.534Z,57.48
2022-08-08T22:49:07.004Z,57.80
2022-08-08T22:51:46.355Z,57.79
2022-08-08T22:54:32.496Z,58.04
2022-08-08T22:57:01.823Z,57.97
2022-08-08T22:59:48.450Z,58.48
2022-08-08T23:02:27.931Z,58.61
2022-08-08T23:05:01.970Z,58.83
2022-08-08T23:07:51.957Z,59.17
2022-08-08T23:10:19.844Z,59.26
2022-08-08T23:12:48.499Z,59.43
2022-08-08T23:16:37.715Z,59.65
2022-08-08T23:18:08.464Z,59.63
2022-08-08T23:20:44.409Z,59.72
2022-08-08T23:23:18.305Z,59.77
2022-08-08T23:25:48.162Z,60.16
2022-08-08T23:28:16.162Z,60.45
2022-08-08T23:30:45.508Z,60.54
2022-08-08T23:33:13.670Z,60.56
2022-08-08T23:36:06.543Z,60.94
2022-08-08T23:38:32.515Z,61.26
2022-08-08T23:40:59.049Z,61.45
2022-08-08T23:43:31.873Z,61.56
2022-08-08T23:49:02.736Z,61.53
2022-08-08T23:49:15.475Z,61.80
2022-08-08T23:52:05.815Z,61.94
2022-08-08T23:54:43.052Z,62.14
2022-08-08T23:57:26.805Z,62.40
